createdAt,value
2022-10-04T00:01:53.228Z,69.24
2022-10-04T00:04:30.801Z,69.00
2022-10-04T00:07:18.256Z,68.74
2022-10-04T00:09:57.168Z,69.12
2022-10-04T00:12:25.065Z,69.47
2022-10-04T00:14:53.668Z,70.10
2022-10-04T00:17:24.023Z,69.53
2022-10-04T00:19:51.467Z,71.20
2022-10-04T00:22:37.505Z,72.88
2022-10-04T00:25:07.648Z,71.68
2022-10-04T00:27:36.198Z,72.97
2022-10-04T00:30:03.397Z,71.65
2022-10-04T00:32:39.432Z,70.88
2022-10-04T00:35:25.156Z,72.47
2022-10-04T00:37:57.236Z,69.41
2022-10-04T00:40:30.283Z,70.40
2022-10-04T00:43:08.474Z,72.16
2022-10-04T00:45:54.282Z,71.77
2022-10-04T00:48:31.271Z,71.35
2022-10-04T00:51:05.351Z,72.16
2022-10-04T00:53:52.391Z,71.71
2022-10-04T00:56:37.050Z,72.86
2022-10-04T00:59:29.544Z,70.14
2022-10-04T01:02:14.143Z,68.75
2022-10-04T01:04:55.000Z,72.60
2022-10-04T01:07:29.198Z,73.75
2022-10-04T01:09:59.692Z,72.99
2022-10-04T01:12:39.193Z,71.85
2022-10-04T01:15:10.387Z,73.49
2022-10-04T01:17:38.021Z,73.86
2022-10-04T01:20:28.429Z,74.46
2022-10-04T01:22:56.005Z,74.25
2022-10-04T01:25:42.610Z,73.15
2022-10-04T01:28:10.236Z,73.73
2022-10-04T01:30:37.630Z,74.07
2022-10-04T01:33:06.964Z,75.16
2022-10-04T01:35:37.506Z,75.87
2022-10-04T01:38:07.216Z,76.37
2022-10-04T01:40:35.660Z,73.37
2022-10-04T01:43:06.439Z,74.51
2022-10-04T01:45:40.256Z,74.43
2022-10-04T01:48:10.875Z,76.24
2022-10-04T01:50:41.313Z,75.34
2022-10-04T01:53:21.078Z,75.42
2022-10-04T01:55:50.931Z,74.18
2022-10-04T01:58:26.288Z,75.71
2022-10-04T02:00:57.072Z,74.64
2022-10-04T02:03:29.815Z,72.45
2022-10-04T02:05:59.292Z,73.37
2022-10-04T02:08:29.069Z,73.96
2022-10-04T02:10:56.710Z,73.70
2022-10-04T02:13:27.933Z,74.92
2022-10-04T02:15:55.801Z,73.14
2022-10-04T02:18:23.317Z,71.42
2022-10-04T02:20:50.729Z,74.20
2022-10-04T02:23:19.360Z,73.29
2022-10-04T02:25:46.731Z,73.07
2022-10-04T02:28:15.396Z,73.37
2022-10-04T02:31:23.179Z,72.82
2022-10-04T02:33:51.559Z,72.46
2022-10-04T02:36:19.197Z,72.35
2022-10-04T02:39:00.364Z,69.99
2022-10-04T02:41:44.778Z,71.96
2022-10-04T02:44:16.488Z,72.57
2022-10-04T02:46:54.090Z,70.11
2022-10-04T02:49:24.429Z,71.56
2022-10-04T02:51:54.482Z,70.55
2022-10-04T02:54:32.088Z,68.50
2022-10-04T02:56:59.664Z,70.62
2022-10-04T02:59:27.018Z,73.48
2022-10-04T03:01:57.975Z,73.12
2022-10-04T03:04:33.651Z,73.28
2022-10-04T03:07:02.007Z,73.28
2022-10-04T03:09:30.322Z,70.82
2022-10-04T03:11:57.716Z,73.19
2022-10-04T03:14:25.791Z,73.84
2022-10-04T03:16:58.997Z,71.92
2022-10-04T03:19:27.003Z,70.02
2022-10-04T03:21:56.805Z,69.36
2022-10-04T03:24:27.730Z,71.42
2022-10-04T03:26:56.302Z,72.19
2022-10-04T03:29:24.818Z,73.93
2022-10-04T03:31:53.196Z,73.68
2022-10-04T03:34:23.024Z,72.56
2022-10-04T03:36:51.221Z,72.87
2022-10-04T03:39:34.247Z,73.02
2022-10-04T03:42:04.437Z,72.22
2022-10-04T03:44:31.910Z,73.79
2022-10-04T03:46:59.447Z,72.58
2022-10-04T03:49:35.035Z,73.49
2022-10-04T03:52:02.510Z,73.89
2022-10-04T03:54:30.080Z,76.50
2022-10-04T03:56:57.436Z,77.92
2022-10-04T03:59:25.666Z,76.89
2022-10-04T04:02:11.275Z,75.37
2022-10-04T04:04:46.904Z,76.57
2022-10-04T04:07:19.967Z,75.14
2022-10-04T04:10:01.831Z,73.93
2022-10-04T04:12:38.554Z,75.53
2022-10-04T04:15:09.879Z,74.44
2022-10-04T04:17:40.995Z,72.58
2022-10-04T04:20:22.371Z,72.86
2022-10-04T04:23:00.389Z,76.15
2022-10-04T04:25:29.142Z,73.75
2022-10-04T04:28:01.913Z,72.74
2022-10-04T04:30:30.255Z,74.22
2022-10-04T04:33:09.299Z,74.07
2022-10-04T04:35:36.934Z,74.16
2022-10-04T04:38:06.369Z,72.80
2022-10-04T04:40:34.192Z,73.85
2022-10-04T04:43:01.792Z,74.84
2022-10-04T04:45:30.216Z,75.03
2022-10-04T04:47:59.665Z,74.44
2022-10-04T04:50:30.591Z,72.16
2022-10-04T04:53:00.133Z,74.25
2022-10-04T04:55:34.010Z,72.77
2022-10-04T04:58:21.679Z,72.05
2022-10-04T05:00:58.280Z,74.30
2022-10-04T05:03:26.104Z,74.05
2022-10-04T05:05:55.073Z,72.96
2022-10-04T05:08:27.874Z,71.91
2022-10-04T05:11:05.238Z,71.58
2022-10-04T05:13:52.632Z,73.04
2022-10-04T05:16:43.097Z,72.66
2022-10-04T05:19:30.485Z,73.52
2022-10-04T05:22:00.225Z,74.43
2022-10-04T05:24:34.886Z,73.65
2022-10-04T05:27:32.728Z,75.47
2022-10-04T05:30:15.324Z,73.43
2022-10-04T05:32:47.255Z,75.59
2022-10-04T05:35:19.617Z,74.93
2022-10-04T05:38:01.175Z,74.57
2022-10-04T05:40:41.568Z,74.05
2022-10-04T05:43:44.893Z,73.09
2022-10-04T05:46:31.859Z,72.54
2022-10-04T05:49:18.866Z,74.15
2022-10-04T05:51:53.165Z,74.18
2022-10-04T05:54:25.186Z,74.02
2022-10-04T05:57:15.901Z,71.82
2022-10-04T06:00:15.574Z,71.42
2022-10-04T06:02:57.730Z,70.91
2022-10-04T06:05:57.763Z,72.01
2022-10-04T06:08:56.192Z,73.82
2022-10-04T06:11:48.129Z,74.43
2022-10-04T06:14:34.514Z,72.12
2022-10-04T06:17:17.956Z,72.99
2022-10-04T06:20:04.067Z,74.09
2022-10-04T06:22:33.134Z,72.56
2022-10-04T06:25:06.133Z,71.41
2022-10-04T06:27:46.879Z,72.00
2022-10-04T06:30:16.141Z,70.39
2022-10-04T06:33:05.619Z,70.40
2022-10-04T06:35:52.142Z,70.24
2022-10-04T06:38:44.502Z,69.00
2022-10-04T06:41:26.784Z,67.71
2022-10-04T06:44:17.262Z,67.34
2022-10-04T06:46:53.770Z,66.08
2022-10-04T06:49:40.439Z,67.81
2022-10-04T06:52:17.213Z,65.54
2022-10-04T06:55:33.530Z,67.75
2022-10-04T06:58:23.264Z,66.51
2022-10-04T07:01:13.589Z,67.90
2022-10-04T07:03:51.376Z,66.91
2022-10-04T07:06:31.721Z,66.53
2022-10-04T07:09:02.528Z,65.24
2022-10-04T07:11:32.924Z,67.98
2022-10-04T07:14:03.637Z,68.36
2022-10-04T07:16:51.327Z,66.57
2022-10-04T07:19:32.703Z,66.55
2022-10-04T07:22:12.853Z,65.79
2022-10-04T07:25:14.769Z,65.30
2022-10-04T07:27:41.987Z,64.96
2022-10-04T07:30:15.552Z,66.07
2022-10-04T07:32:51.727Z,64.81
2022-10-04T07:35:33.148Z,63.84
2022-10-04T07:38:01.746Z,63.40
2022-10-04T07:40:57.775Z,66.02
2022-10-04T07:43:30.117Z,66.25
2022-10-04T07:46:10.517Z,65.13
2022-10-04T07:48:41.976Z,67.01
2022-10-04T07:51:40.006Z,66.40
2022-10-04T07:54:18.671Z,65.70
2022-10-04T07:56:55.192Z,66.25
2022-10-04T07:59:41.102Z,64.46
2022-10-04T08:02:17.932Z,65.56
2022-10-04T08:05:09.198Z,67.07
2022-10-04T08:07:43.220Z,66.88
2022-10-04T08:10:18.152Z,66.30
2022-10-04T08:12:59.854Z,64.26
2022-10-04T08:15:29.465Z,63.54
2022-10-04T08:18:09.800Z,62.23
2022-10-04T08:21:02.895Z,63.08
2022-10-04T08:23:59.742Z,61.85
2022-10-04T08:27:01.900Z,62.78
2022-10-04T08:29:55.848Z,62.97
2022-10-04T08:32:38.282Z,62.15
2022-10-04T08:35:16.461Z,60.05
2022-10-04T08:38:09.623Z,59.81
2022-10-04T08:41:06.035Z,58.86
2022-10-04T08:43:51.706Z,59.79
2022-10-04T08:46:40.307Z,58.46
2022-10-04T08:49:26.778Z,59.04
2022-10-04T08:52:03.240Z,59.10
2022-10-04T08:54:36.615Z,57.70
2022-10-04T08:57:41.246Z,57.16
2022-10-04T09:00:14.092Z,56.12
2022-10-04T09:03:00.154Z,54.18
2022-10-04T09:05:50.860Z,55.36
2022-10-04T09:08:56.178Z,54.17
2022-10-04T09:11:47.793Z,52.87
2022-10-04T09:14:38.897Z,52.77
2022-10-04T09:17:22.894Z,53.37
2022-10-04T09:20:26.136Z,55.63
2022-10-04T09:23:34.437Z,55.86
2022-10-04T09:26:15.440Z,55.25
2022-10-04T09:29:11.208Z,54.53
2022-10-04T09:31:45.038Z,54.38
2022-10-04T09:34:22.236Z,54.78
2022-10-04T09:37:15.129Z,56.10
2022-10-04T09:39:51.128Z,53.98
2022-10-04T09:42:32.317Z,53.79
2022-10-04T09:45:21.801Z,53.52
2022-10-04T09:48:07.998Z,52.50
2022-10-04T09:51:10.334Z,55.75
2022-10-04T09:53:58.817Z,56.97
2022-10-04T09:56:45.778Z,55.78
2022-10-04T09:59:22.795Z,56.42
2022-10-04T10:02:09.190Z,55.63
2022-10-04T10:05:10.691Z,54.93
2022-10-04T10:07:59.189Z,55.84
2022-10-04T10:11:24.723Z,56.99
2022-10-04T10:13:57.833Z,57.48
2022-10-04T10:16:34.713Z,55.93
2022-10-04T10:19:31.698Z,58.00
2022-10-04T10:22:28.865Z,60.01
2022-10-04T10:25:17.208Z,56.23
2022-10-04T10:27:55.275Z,56.92
2022-10-04T10:30:39.406Z,55.91
2022-10-04T10:33:31.096Z,54.64
2022-10-04T10:36:36.155Z,55.34
2022-10-04T10:39:17.834Z,55.47
2022-10-04T10:41:53.024Z,56.99
2022-10-04T10:44:23.474Z,56.80
2022-10-04T10:47:13.664Z,55.67
2022-10-04T10:49:51.994Z,54.96
2022-10-04T10:52:49.073Z,53.98
2022-10-04T10:55:28.691Z,54.25
2022-10-04T10:58:25.565Z,55.88
2022-10-04T11:01:16.857Z,55.79
2022-10-04T11:04:02.759Z,56.52
2022-10-04T11:06:49.195Z,56.98
2022-10-04T11:09:34.462Z,56.96
2022-10-04T11:12:44.599Z,57.90
2022-10-04T11:15:33.341Z,60.69
2022-10-04T11:18:22.042Z,59.47
2022-10-04T11:21:01.102Z,59.81
2022-10-04T11:23:40.684Z,58.97
2022-10-04T11:26:19.965Z,57.71
2022-10-04T11:29:20.598Z,59.22
2022-10-04T11:32:00.417Z,59.13
2022-10-04T11:35:04.248Z,59.75
2022-10-04T11:37:48.464Z,59.59
2022-10-04T11:40:16.225Z,60.64
2022-10-04T11:42:43.488Z,60.24
2022-10-04T11:45:33.510Z,57.54
2022-10-04T11:48:17.637Z,57.94
2022-10-04T11:51:03.406Z,56.00
2022-10-04T11:54:03.500Z,54.22
2022-10-04T11:56:59.377Z,54.06
2022-10-04T11:59:30.284Z,55.71
2022-10-04T12:02:28.510Z,55.71
2022-10-04T12:05:14.914Z,53.85
2022-10-04T12:07:45.009Z,52.67
2022-10-04T12:10:29.068Z,54.86
2022-10-04T12:13:10.170Z,52.54
2022-10-04T12:15:41.387Z,53.71
2022-10-04T12:18:32.884Z,54.09
2022-10-04T12:21:40.794Z,54.48
2022-10-04T12:24:33.311Z,54.67
2022-10-04T12:27:39.218Z,54.99
2022-10-04T12:30:21.822Z,55.18
2022-10-04T12:33:03.548Z,56.39
2022-10-04T12:35:37.030Z,55.60
2022-10-04T12:38:47.363Z,55.12
2022-10-04T12:41:43.357Z,60.85
2022-10-04T12:45:15.942Z,60.55
2022-10-04T12:47:56.960Z,59.42
2022-10-04T12:50:31.565Z,58.66
2022-10-04T12:53:10.765Z,59.39
2022-10-04T12:55:38.201Z,60.37
2022-10-04T12:58:22.412Z,59.31
2022-10-04T13:00:50.170Z,59.93
2022-10-04T13:03:41.290Z,61.42
2022-10-04T13:06:19.596Z,61.05
2022-10-04T13:09:02.367Z,61.57
2022-10-04T13:11:52.421Z,60.21
2022-10-04T13:14:36.094Z,60.98
2022-10-04T13:17:35.364Z,59.33
2022-10-04T13:20:26.147Z,58.74
2022-10-04T13:23:02.788Z,58.46
2022-10-04T13:25:52.823Z,59.44
2022-10-04T13:28:31.926Z,58.49
2022-10-04T13:31:23.780Z,55.22
2022-10-04T13:33:58.357Z,56.11
2022-10-04T13:36:42.003Z,54.56
2022-10-04T13:39:40.086Z,56.39
2022-10-04T13:42:25.824Z,55.95
2022-10-04T13:45:02.625Z,57.66
2022-10-04T13:47:58.935Z,57.57
2022-10-04T13:50:47.907Z,57.27
2022-10-04T13:53:54.087Z,55.64
2022-10-04T13:56:49.999Z,57.04
2022-10-04T13:59:52.316Z,56.81
2022-10-04T14:02:57.407Z,54.87
2022-10-04T14:06:04.558Z,56.17
2022-10-04T14:08:43.316Z,57.06
2022-10-04T14:11:42.109Z,56.33
2022-10-04T14:14:40.345Z,55.79
2022-10-04T14:17:26.034Z,55.17
2022-10-04T14:20:17.352Z,55.09
2022-10-04T14:23:07.465Z,55.26
2022-10-04T14:25:38.414Z,55.60
2022-10-04T14:28:35.798Z,55.02
2022-10-04T14:31:22.113Z,55.77
2022-10-04T14:34:15.890Z,54.45
2022-10-04T14:37:02.530Z,55.38
2022-10-04T14:39:59.478Z,53.53
2022-10-04T14:43:15.503Z,55.59
2022-10-04T14:45:52.999Z,55.27
2022-10-04T14:48:49.025Z,54.51
2022-10-04T14:51:22.969Z,53.79
2022-10-04T14:53:56.461Z,52.38
2022-10-04T14:56:50.705Z,54.48
2022-10-04T14:59:26.757Z,54.45
2022-10-04T15:02:00.806Z,54.95
2022-10-04T15:04:48.641Z,54.96
2022-10-04T15:07:22.810Z,56.06
2022-10-04T15:09:56.055Z,54.79
2022-10-04T15:13:09.354Z,55.96
2022-10-04T15:15:49.937Z,54.49
2022-10-04T15:18:37.786Z,55.83
2022-10-04T15:21:28.907Z,55.56
2022-10-04T15:24:10.754Z,56.30
2022-10-04T15:26:42.578Z,57.22
2022-10-04T15:29:43.726Z,56.75
2022-10-04T15:32:35.250Z,55.28
2022-10-04T15:35:17.034Z,56.50
2022-10-04T15:37:50.262Z,56.62
2022-10-04T15:40:34.630Z,55.59
2022-10-04T15:43:04.845Z,54.05
2022-10-04T15:45:53.387Z,53.91
2022-10-04T15:48:36.787Z,54.55
2022-10-04T15:51:11.238Z,53.61
2022-10-04T15:54:07.835Z,54.93
2022-10-04T15:56:54.225Z,55.54
2022-10-04T15:59:22.004Z,54.70
2022-10-04T16:01:55.226Z,54.33
2022-10-04T16:04:35.520Z,54.95
2022-10-04T16:07:21.779Z,55.20
2022-10-04T16:09:59.315Z,56.00
2022-10-04T16:12:51.881Z,55.68
2022-10-04T16:15:32.903Z,54.94
2022-10-04T16:18:19.067Z,55.83
2022-10-04T16:21:01.048Z,56.49
2022-10-04T16:23:37.552Z,56.62
2022-10-04T16:26:33.951Z,56.87
2022-10-04T16:29:39.050Z,56.53
2022-10-04T16:32:13.279Z,60.40
2022-10-04T16:34:45.412Z,59.25
2022-10-04T16:37:30.021Z,57.93
2022-10-04T16:40:16.198Z,57.76
2022-10-04T16:43:06.746Z,57.92
2022-10-04T16:46:09.487Z,58.15
2022-10-04T16:48:51.262Z,58.61
2022-10-04T16:51:18.465Z,58.71
2022-10-04T16:54:29.267Z,59.01
2022-10-04T16:56:57.328Z,59.61
2022-10-04T16:59:37.159Z,59.31
2022-10-04T17:02:26.217Z,59.50
2022-10-04T17:05:17.070Z,59.57
2022-10-04T17:08:14.797Z,59.98
2022-10-04T17:10:48.295Z,61.15
2022-10-04T17:13:56.917Z,60.65
2022-10-04T17:16:34.565Z,61.08
2022-10-04T17:19:29.861Z,60.91
2022-10-04T17:22:06.931Z,61.41
2022-10-04T17:24:52.178Z,62.07
2022-10-04T17:27:47.644Z,62.44
2022-10-04T17:30:21.981Z,62.72
2022-10-04T17:33:17.930Z,62.46
2022-10-04T17:35:59.231Z,65.61
2022-10-04T17:39:01.128Z,65.54
2022-10-04T17:41:53.106Z,64.64
2022-10-04T17:44:54.579Z,64.81
2022-10-04T17:47:59.979Z,64.08
2022-10-04T17:51:06.574Z,64.30
2022-10-04T17:53:53.095Z,63.91
2022-10-04T17:56:49.293Z,64.51
2022-10-04T17:59:17.676Z,64.14
2022-10-04T18:01:52.186Z,63.80
2022-10-04T18:04:23.670Z,63.89
2022-10-04T18:06:54.691Z,64.17
2022-10-04T18:09:43.025Z,64.19
2022-10-04T18:12:33.203Z,64.17
2022-10-04T18:15:15.281Z,64.66
2022-10-04T18:17:43.513Z,64.46
2022-10-04T18:20:10.990Z,63.99
2022-10-04T18:22:48.714Z,64.06
2022-10-04T18:25:23.303Z,64.50
2022-10-04T18:28:09.044Z,64.16
2022-10-04T18:30:45.736Z,64.32
2022-10-04T18:33:16.502Z,64.37
2022-10-04T18:35:55.131Z,64.73
2022-10-04T18:38:24.562Z,64.71
2022-10-04T18:40:56.484Z,64.57
2022-10-04T18:43:49.795Z,65.19
2022-10-04T18:46:21.261Z,64.74
2022-10-04T18:48:53.107Z,65.05
2022-10-04T18:51:34.051Z,64.89
2022-10-04T18:54:09.939Z,65.19
2022-10-04T18:56:46.370Z,64.34
2022-10-04T18:59:52.331Z,64.56
2022-10-04T19:02:35.020Z,64.41
2022-10-04T19:05:05.525Z,64.78
2022-10-04T19:07:56.464Z,65.05
2022-10-04T19:10:41.178Z,65.19
2022-10-04T19:13:29.656Z,64.70
2022-10-04T19:16:17.415Z,64.79
2022-10-04T19:18:54.122Z,64.98
2022-10-04T19:21:38.024Z,65.04
2022-10-04T19:24:23.650Z,65.56
2022-10-04T19:26:59.629Z,65.32
2022-10-04T19:29:41.274Z,65.45
2022-10-04T19:32:13.936Z,65.16
2022-10-04T19:35:16.165Z,65.68
2022-10-04T19:38:08.423Z,65.36
2022-10-04T19:40:48.525Z,65.53
2022-10-04T19:43:31.842Z,64.74
2022-10-04T19:46:35.043Z,65.27
2022-10-04T19:49:02.496Z,65.66
2022-10-04T19:51:58.633Z,65.55
2022-10-04T19:54:33.470Z,65.47
2022-10-04T19:57:01.685Z,65.93
2022-10-04T19:59:36.458Z,65.41
2022-10-04T20:02:09.354Z,65.79
2022-10-04T20:04:39.910Z,65.56
2022-10-04T20:07:11.628Z,66.07
2022-10-04T20:09:45.400Z,66.62
2022-10-04T20:12:29.562Z,66.26
2022-10-04T20:15:12.998Z,65.77
2022-10-04T20:17:40.904Z,66.07
2022-10-04T20:20:08.497Z,65.90
2022-10-04T20:22:54.003Z,65.89
2022-10-04T20:25:43.360Z,65.63
2022-10-04T20:28:26.396Z,66.03
2022-10-04T20:30:58.364Z,65.68
2022-10-04T20:33:46.367Z,65.62
2022-10-04T20:36:20.009Z,66.10
2022-10-04T20:38:52.744Z,65.59
2022-10-04T20:41:29.455Z,65.67
2022-10-04T20:44:06.897Z,66.40
2022-10-04T20:46:38.128Z,65.86
2022-10-04T20:49:11.790Z,65.89
2022-10-04T20:51:39.376Z,66.11
2022-10-04T20:54:16.469Z,65.87
2022-10-04T20:56:47.221Z,66.18
2022-10-04T20:59:15.841Z,65.98
2022-10-04T21:01:46.413Z,65.95
2022-10-04T21:04:33.586Z,66.10
2022-10-04T21:07:02.174Z,66.01
2022-10-04T21:09:30.945Z,66.08
2022-10-04T21:11:58.844Z,65.57
2022-10-04T21:14:33.442Z,65.71
2022-10-04T21:17:03.166Z,65.76
2022-10-04T21:19:33.855Z,66.08
2022-10-04T21:22:05.227Z,65.93
2022-10-04T21:24:50.718Z,66.06
2022-10-04T21:27:35.226Z,66.37
2022-10-04T21:30:16.037Z,66.36
2022-10-04T21:32:43.756Z,66.32
2022-10-04T21:35:12.169Z,65.73
2022-10-04T21:37:39.503Z,65.57
2022-10-04T21:40:07.878Z,65.51
2022-10-04T21:42:35.222Z,65.15
2022-10-04T21:45:02.537Z,65.16
2022-10-04T21:47:30.557Z,65.80
2022-10-04T21:49:58.043Z,65.13
2022-10-04T21:52:25.354Z,65.57
2022-10-04T21:54:52.953Z,65.30
2022-10-04T21:57:22.245Z,65.55
2022-10-04T21:59:49.578Z,65.21
2022-10-04T22:02:17.220Z,65.00
2022-10-04T22:04:44.951Z,65.16
2022-10-04T22:07:12.247Z,65.19
2022-10-04T22:09:39.549Z,65.43
2022-10-04T22:12:07.155Z,66.04
2022-10-04T22:14:34.449Z,65.31
2022-10-04T22:17:02.571Z,65.52
2022-10-04T22:19:30.276Z,65.44
2022-10-04T22:21:57.839Z,65.74
2022-10-04T22:24:25.137Z,65.44
2022-10-04T22:26:52.767Z,65.37
2022-10-04T22:29:20.166Z,65.88
2022-10-04T22:31:51.227Z,66.09
2022-10-04T22:34:22.879Z,65.72
2022-10-04T22:36:51.976Z,65.79
2022-10-04T22:39:20.210Z,65.74
2022-10-04T22:41:58.250Z,66.42
2022-10-04T22:44:30.522Z,66.04
2022-10-04T22:46:59.602Z,66.17
2022-10-04T22:49:29.409Z,66.56
2022-10-04T22:51:57.739Z,66.45
2022-10-04T22:54:26.522Z,65.75
2022-10-04T22:56:54.111Z,66.15
2022-10-04T22:59:21.556Z,66.57
2022-10-04T23:01:48.931Z,66.54
2022-10-04T23:04:25.157Z,65.87
2022-10-04T23:06:53.015Z,65.95
2022-10-04T23:09:20.676Z,65.91
2022-10-04T23:11:48.001Z,66.05
2022-10-04T23:14:15.343Z,66.49
2022-10-04T23:16:44.661Z,67.15
2022-10-04T23:19:14.690Z,66.77
2022-10-04T23:21:44.162Z,67.11
2022-10-04T23:24:16.626Z,66.61
2022-10-04T23:26:46.217Z,66.69
2022-10-04T23:29:19.238Z,66.64
2022-10-04T23:31:47.301Z,66.64
2022-10-04T23:34:18.122Z,66.39
2022-10-04T23:36:46.970Z,66.90
2022-10-04T23:39:22.573Z,66.86
2022-10-04T23:41:49.947Z,66.65
2022-10-04T23:44:17.517Z,65.18
2022-10-04T23:46:45.160Z,66.33
2022-10-04T23:49:16.937Z,66.86
2022-10-04T23:51:45.059Z,66.81
2022-10-04T23:54:14.378Z,67.08
2022-10-04T23:56:41.829Z,66.48
2022-10-04T23:59:19.626Z,66.25
